MSC Caitlin — 9HA2641 — position and weather

sailwx.info

Track history (hours):
 
Tides and Currents Weather Stations Pressure Air Temp Water Temp Dewpoint Dewpoint Depression Visibility Wind Speed Wind Dir Waves Ship Positions

MSC Caitlin

Last reported at 2017-Sep-24 13:47 UTC. Time now 2017-Sep-26 18:30 UTC.
Position N 32°53' E 034°52'.

Length 216 m; draft 9.5 m.

Type: Ship (hazmat cat D). MMSI: 215106000.

Date/timePositionNaut miles runAvg speedWind from/ knotsBaromVisibWave heightAir tempDewpointWater temp
2017-Sep-24 13:47N 32°53' E 034°52'312.8
2017-Sep-24 13:30N 32°52' E 034°56'  
2017-Sep-19 19:33N 32°51' E 035°01'4 0.5
2017-Sep-19 11:31N 32°53' E 034°58'0 8.2
2017-Sep-19 11:30N 32°53' E 034°57'612.0
2017-Sep-19 10:59N 32°54' E 034°50'  
2017-Sep-16 22:26N 35°49' E 024°46'715.1
2017-Sep-16 22:00N 35°51' E 024°38'715.0
2017-Sep-16 21:31N 35°52' E 024°29'815.1
2017-Sep-16 21:01N 35°53' E 024°20'815.0
2017-Sep-16 20:30N 35°55' E 024°10'1215.1
2017-Sep-16 19:42N 35°57' E 023°56'1315.1
2017-Sep-16 18:52N 35°59' E 023°40'1914.8
2017-Sep-16 17:34N 36°02' E 023°17'114.9
2017-Sep-16 17:29N 36°02' E 023°15'4714.9
2017-Sep-16 14:20N 36°12' E 022°18'515.3
2017-Sep-16 14:00N 36°13' E 022°12'3115.5
2017-Sep-16 12:00N 36°23' E 021°36'10614.8
2017-Sep-16 04:50N 36°54' E 019°30'515.2
2017-Sep-16 04:30N 36°56' E 019°24'815.2
2017-Sep-16 04:00N 36°58' E 019°15'815.3
2017-Sep-16 03:29N 37°01' E 019°05'715.1
2017-Sep-16 03:01N 37°03' E 018°57'815.1
2017-Sep-16 02:31N 37°05' E 018°48'815.2
2017-Sep-16 02:00N 37°08' E 018°38'815.2
2017-Sep-16 01:30N 37°10' E 018°29'815.3
2017-Sep-16 01:00N 37°12' E 018°20'815.1
2017-Sep-16 00:29N 37°15' E 018°11'5214.9
2017-Sep-15 21:01N 37°30' E 017°09'015.6
2017-Sep-15 21:00N 37°30' E 017°09'2114.9
2017-Sep-15 19:37N 37°37' E 016°44'315.4
2017-Sep-15 19:27N 37°38' E 016°41'715.6
2017-Sep-15 19:00N 37°40' E 016°33'815.6
2017-Sep-15 18:30N 37°42' E 016°23'1815.4
2017-Sep-15 17:22N 37°47' E 016°02'1113.8
2017-Sep-15 16:36N 37°50' E 015°49'114.2
2017-Sep-15 16:30N 37°51' E 015°47'714.7
2017-Sep-15 16:00N 37°53' E 015°39'815.2
2017-Sep-15 15:30N 38°00' E 015°35'713.5
2017-Sep-15 15:00N 38°07' E 015°34'714.5
2017-Sep-15 14:31N 38°14' E 015°36'815.2
2017-Sep-15 14:00N 38°19' E 015°43'816.2
2017-Sep-15 13:30N 38°25' E 015°51'4 5.9
2017-Sep-15 12:52N 38°28' E 015°54'0 0.0
2017-Sep-15 11:28N 38°28' E 015°54'0 0.0
2017-Sep-15 09:46N 38°28' E 015°54'0 0.0
2017-Sep-15 09:28N 38°28' E 015°54'0 0.0
2017-Sep-15 08:28N 38°28' E 015°54'0 0.0
2017-Sep-15 07:58N 38°28' E 015°54'0 0.0
2017-Sep-15 06:40N 38°28' E 015°54'0 0.0
2017-Sep-15 04:10N 38°28' E 015°54'0 0.0
2017-Sep-15 03:58N 38°28' E 015°54'0 0.0
2017-Sep-15 02:43N 38°28' E 015°54'0 0.0
2017-Sep-15 02:22N 38°28' E 015°54'0 0.0
2017-Sep-15 01:58N 38°28' E 015°54'0 0.0
2017-Sep-15 01:19N 38°28' E 015°54'0 0.0
2017-Sep-15 00:40N 38°28' E 015°54'0 0.0
2017-Sep-15 00:22N 38°28' E 015°54'0 0.0
2017-Sep-14 23:58N 38°28' E 015°54'0 0.0
2017-Sep-14 22:46N 38°28' E 015°54'0 0.3
2017-Sep-14 22:16N 38°27' E 015°54'1 3.3
2017-Sep-14 22:00N 38°27' E 015°54'2 4.2
2017-Sep-14 21:27N 38°26' E 015°51'614.3
2017-Sep-14 21:00N 38°21' E 015°47'815.7
2017-Sep-14 20:31N 38°15' E 015°40'714.4
2017-Sep-14 20:01N 38°09' E 015°36'714.7
2017-Sep-14 19:30N 38°01' E 015°36'713.6
2017-Sep-14 19:00N 37°55' E 015°40'612.8
2017-Sep-14 18:30N 37°51' E 015°47'1314.7
2017-Sep-14 17:38N 37°46' E 016°01'  
Track history (hours):
 
Tides and Currents Weather Stations Pressure Air Temp Water Temp Dewpoint Dewpoint Depression Visibility Wind Speed Wind Dir Waves Ship Positions

MSC Caitlin

Last reported at 2017-Sep-24 13:47 UTC. Time now 2017-Sep-26 18:30 UTC.
Position N 32°53' E 034°52'.

Length 216 m; draft 9.5 m.

Type: Ship (hazmat cat D). MMSI: 215106000.

Date/timePositionNaut miles runAvg speedWind from/ knotsBaromVisibWave heightAir tempDewpointWater temp
2017-Sep-24 13:47N 32°53' E 034°52'312.8
2017-Sep-24 13:30N 32°52' E 034°56'  
2017-Sep-19 19:33N 32°51' E 035°01'4 0.5
2017-Sep-19 11:31N 32°53' E 034°58'0 8.2
2017-Sep-19 11:30N 32°53' E 034°57'612.0
2017-Sep-19 10:59N 32°54' E 034°50'  
2017-Sep-16 22:26N 35°49' E 024°46'715.1
2017-Sep-16 22:00N 35°51' E 024°38'715.0
2017-Sep-16 21:31N 35°52' E 024°29'815.1
2017-Sep-16 21:01N 35°53' E 024°20'815.0
2017-Sep-16 20:30N 35°55' E 024°10'1215.1
2017-Sep-16 19:42N 35°57' E 023°56'1315.1
2017-Sep-16 18:52N 35°59' E 023°40'1914.8
2017-Sep-16 17:34N 36°02' E 023°17'114.9
2017-Sep-16 17:29N 36°02' E 023°15'4714.9
2017-Sep-16 14:20N 36°12' E 022°18'515.3
2017-Sep-16 14:00N 36°13' E 022°12'3115.5
2017-Sep-16 12:00N 36°23' E 021°36'10614.8
2017-Sep-16 04:50N 36°54' E 019°30'515.2
2017-Sep-16 04:30N 36°56' E 019°24'815.2
2017-Sep-16 04:00N 36°58' E 019°15'815.3
2017-Sep-16 03:29N 37°01' E 019°05'715.1
2017-Sep-16 03:01N 37°03' E 018°57'815.1
2017-Sep-16 02:31N 37°05' E 018°48'815.2
2017-Sep-16 02:00N 37°08' E 018°38'815.2
2017-Sep-16 01:30N 37°10' E 018°29'815.3
2017-Sep-16 01:00N 37°12' E 018°20'815.1
2017-Sep-16 00:29N 37°15' E 018°11'5214.9
2017-Sep-15 21:01N 37°30' E 017°09'015.6
2017-Sep-15 21:00N 37°30' E 017°09'2114.9
2017-Sep-15 19:37N 37°37' E 016°44'315.4
2017-Sep-15 19:27N 37°38' E 016°41'715.6
2017-Sep-15 19:00N 37°40' E 016°33'815.6
2017-Sep-15 18:30N 37°42' E 016°23'1815.4
2017-Sep-15 17:22N 37°47' E 016°02'1113.8
2017-Sep-15 16:36N 37°50' E 015°49'114.2
2017-Sep-15 16:30N 37°51' E 015°47'714.7
2017-Sep-15 16:00N 37°53' E 015°39'815.2
2017-Sep-15 15:30N 38°00' E 015°35'713.5
2017-Sep-15 15:00N 38°07' E 015°34'714.5
2017-Sep-15 14:31N 38°14' E 015°36'815.2
2017-Sep-15 14:00N 38°19' E 015°43'816.2
2017-Sep-15 13:30N 38°25' E 015°51'4 5.9
2017-Sep-15 12:52N 38°28' E 015°54'0 0.0
2017-Sep-15 11:28N 38°28' E 015°54'0 0.0
2017-Sep-15 09:46N 38°28' E 015°54'0 0.0
2017-Sep-15 09:28N 38°28' E 015°54'0 0.0
2017-Sep-15 08:28N 38°28' E 015°54'0 0.0
2017-Sep-15 07:58N 38°28' E 015°54'0 0.0
2017-Sep-15 06:40N 38°28' E 015°54'0 0.0
2017-Sep-15 04:10N 38°28' E 015°54'0 0.0
2017-Sep-15 03:58N 38°28' E 015°54'0 0.0
2017-Sep-15 02:43N 38°28' E 015°54'0 0.0
2017-Sep-15 02:22N 38°28' E 015°54'0 0.0
2017-Sep-15 01:58N 38°28' E 015°54'0 0.0
2017-Sep-15 01:19N 38°28' E 015°54'0 0.0
2017-Sep-15 00:40N 38°28' E 015°54'0 0.0
2017-Sep-15 00:22N 38°28' E 015°54'0 0.0
2017-Sep-14 23:58N 38°28' E 015°54'0 0.0
2017-Sep-14 22:46N 38°28' E 015°54'0 0.3
2017-Sep-14 22:16N 38°27' E 015°54'1 3.3
2017-Sep-14 22:00N 38°27' E 015°54'2 4.2
2017-Sep-14 21:27N 38°26' E 015°51'614.3
2017-Sep-14 21:00N 38°21' E 015°47'815.7
2017-Sep-14 20:31N 38°15' E 015°40'714.4
2017-Sep-14 20:01N 38°09' E 015°36'714.7
2017-Sep-14 19:30N 38°01' E 015°36'713.6
2017-Sep-14 19:00N 37°55' E 015°40'612.8
2017-Sep-14 18:30N 37°51' E 015°47'1314.7
2017-Sep-14 17:38N 37°46' E 016°01'  

Dump ship's entire track history